Main page
METAR-TAF:

METAR-TAF

Airports :

Asahikawa Airport

Asahikawa, Japan

latitude: 43-40N, longitude: 142-27E, elevation: 208 m

Current weather observation

The report was made 15 minutes ago, at 03:00 UTC
Wind 9 kt from the South/Southeast
Temperature 3°C
Humidity 70%
Pressure 1025 hPa
Visibility 10 km or more
Few clouds at a height of 2000 ft
Broken clouds at a height of 4000 ft

METAR: RJEC 060300Z 16009KT 9999 FEW020 BKN040 03/M02 Q1025

Time: 12:15 (03:15 UTC)

Forecast

The report was made 4 hours and 10 minutes ago, at 23:05 UTC
Forecast valid from 06 at 00 UTC to 07 at 06 UTC
Wind 11 kt from the South
Visibility 10 km or more
Few clouds at a height of 1500 ft
Broken clouds at a height of 4000 ft
Becoming
from 07 at 00 UTC to 07 at 03 UTC
Wind 6 kt from the North

TAF: RJEC 052305Z 0600/0706 18011KT 9999 FEW015 BKN040 BECMG 0700/0703 35006KT

Weather observations and forecasts of more than 4000 airports (METAR and TAF reports).

The available stations are represented by yellow and red dots on the map.

Hover mouse over dot to see the name of the station.

Then click to see weather observations and forecasts.

To change the map : click on the green buttons with a black cross to zoom in, on the green button with a dash to zoom out, or on the green arrows for adjacent maps.


METAR-TAF: